createdAt,value
2024-01-19T00:01:47.998Z,10.10
2024-01-19T00:04:14.580Z,10.00
2024-01-19T00:06:41.164Z,8.98
2024-01-19T00:09:08.512Z,11.98
2024-01-19T00:11:35.235Z,11.55
2024-01-19T00:14:02.006Z,12.93
2024-01-19T00:16:28.731Z,10.23
2024-01-19T00:18:55.403Z,8.30
2024-01-19T00:21:22.100Z,9.57
2024-01-19T00:23:49.080Z,9.68
2024-01-19T00:26:15.787Z,8.88
2024-01-19T00:28:43.037Z,7.82
2024-01-19T00:31:09.778Z,8.40
2024-01-19T00:33:36.401Z,16.38
2024-01-19T00:36:03.206Z,11.20
2024-01-19T00:38:29.970Z,9.65
2024-01-19T00:40:56.584Z,8.75
2024-01-19T00:43:23.201Z,8.65
2024-01-19T00:45:49.927Z,7.95
2024-01-19T00:48:16.570Z,7.55
2024-01-19T00:50:43.284Z,7.72
2024-01-19T00:53:10.138Z,8.57
2024-01-19T00:55:36.873Z,8.70
2024-01-19T00:58:03.478Z,8.75
2024-01-19T01:00:30.116Z,8.98
2024-01-19T01:02:58.420Z,9.27
2024-01-19T01:05:25.285Z,9.95
2024-01-19T01:07:52.032Z,10.32
2024-01-19T01:10:19.365Z,12.38
2024-01-19T01:12:45.982Z,9.45
2024-01-19T01:15:15.317Z,10.18
2024-01-19T01:17:42.424Z,8.02
2024-01-19T01:20:12.094Z,7.47
2024-01-19T01:22:38.951Z,7.28
2024-01-19T01:25:05.800Z,6.93
2024-01-19T01:27:32.427Z,6.55
2024-01-19T01:29:59.135Z,7.10
2024-01-19T01:32:25.818Z,7.68
2024-01-19T01:34:52.486Z,5.80
2024-01-19T01:37:19.066Z,5.43
2024-01-19T01:39:45.696Z,5.70
2024-01-19T01:42:12.363Z,5.78
2024-01-19T01:44:39.284Z,4.97
2024-01-19T01:47:05.909Z,5.35
2024-01-19T01:49:32.661Z,4.53
2024-01-19T01:51:59.513Z,4.75
2024-01-19T01:54:26.871Z,4.72
2024-01-19T01:56:54.460Z,5.03
2024-01-19T01:59:21.343Z,4.18
2024-01-19T02:01:48.133Z,4.85
2024-01-19T02:04:16.568Z,4.95
2024-01-19T02:06:43.283Z,5.13
2024-01-19T02:09:10.558Z,4.97
2024-01-19T02:11:38.511Z,5.72
2024-01-19T02:14:07.038Z,6.57
2024-01-19T02:16:34.309Z,6.53
2024-01-19T02:19:00.995Z,6.35
2024-01-19T02:21:27.982Z,7.20
2024-01-19T02:23:56.321Z,6.68
2024-01-19T02:26:23.639Z,7.50
2024-01-19T02:28:51.981Z,6.25
2024-01-19T02:31:18.518Z,6.30
2024-01-19T02:33:45.137Z,6.63
2024-01-19T02:36:11.790Z,5.85
2024-01-19T02:38:38.404Z,7.35
2024-01-19T02:41:05.129Z,7.57
2024-01-19T02:43:31.704Z,6.20
2024-01-19T02:45:58.352Z,7.50
2024-01-19T02:48:25.177Z,6.85
2024-01-19T02:50:52.256Z,6.32
2024-01-19T02:53:19.002Z,7.22
2024-01-19T02:55:45.613Z,6.05
2024-01-19T02:58:12.230Z,7.80
2024-01-19T03:00:38.868Z,6.68
2024-01-19T03:03:05.709Z,8.43
2024-01-19T03:05:33.375Z,7.85
2024-01-19T03:08:00.034Z,7.55
2024-01-19T03:10:26.579Z,7.10
2024-01-19T03:12:53.189Z,8.15
2024-01-19T03:15:19.770Z,9.50
2024-01-19T03:17:46.589Z,7.32
2024-01-19T03:20:14.572Z,8.00
2024-01-19T03:22:41.183Z,9.02
2024-01-19T03:25:08.128Z,7.53
2024-01-19T03:27:34.776Z,7.88
2024-01-19T03:30:01.605Z,7.25
2024-01-19T03:32:28.454Z,7.47
2024-01-19T03:34:55.163Z,7.47
2024-01-19T03:37:21.769Z,7.30
2024-01-19T03:39:48.377Z,7.03
2024-01-19T03:42:15.010Z,8.27
2024-01-19T03:44:42.259Z,7.40
2024-01-19T03:47:08.927Z,7.43
2024-01-19T03:49:35.648Z,6.95
2024-01-19T03:52:05.025Z,6.75
2024-01-19T03:54:33.680Z,7.13
2024-01-19T03:57:04.148Z,6.30
2024-01-19T03:59:30.803Z,6.55
2024-01-19T04:01:57.458Z,7.65
2024-01-19T04:04:25.179Z,5.85
2024-01-19T04:06:53.665Z,5.63
2024-01-19T04:09:21.024Z,6.22
2024-01-19T04:11:47.704Z,6.28
2024-01-19T04:14:14.337Z,5.65
2024-01-19T04:16:41.221Z,6.78
2024-01-19T04:19:08.707Z,6.43
2024-01-19T04:21:35.405Z,6.53
2024-01-19T04:24:03.187Z,5.78
2024-01-19T04:26:29.902Z,5.70
2024-01-19T04:28:56.644Z,6.53
2024-01-19T04:31:23.535Z,5.95
2024-01-19T04:33:50.552Z,5.88
2024-01-19T04:36:18.953Z,6.63
2024-01-19T04:38:46.478Z,5.72
2024-01-19T04:41:13.189Z,5.75
2024-01-19T04:43:39.827Z,6.85
2024-01-19T04:46:06.439Z,5.78
2024-01-19T04:48:33.647Z,6.18
2024-01-19T04:51:00.521Z,6.65
2024-01-19T04:53:27.150Z,6.00
2024-01-19T04:55:53.810Z,5.93
2024-01-19T04:58:20.454Z,5.40
2024-01-19T05:00:48.918Z,5.90
2024-01-19T05:03:16.506Z,6.72
2024-01-19T05:05:43.278Z,6.60
2024-01-19T05:08:09.892Z,5.47
2024-01-19T05:10:36.431Z,6.10
2024-01-19T05:13:04.436Z,5.50
2024-01-19T05:15:31.016Z,5.50
2024-01-19T05:17:58.857Z,6.22
2024-01-19T05:20:25.613Z,6.68
2024-01-19T05:22:52.527Z,5.85
2024-01-19T05:25:19.838Z,7.50
2024-01-19T05:27:46.897Z,5.50
2024-01-19T05:30:14.948Z,6.30
2024-01-19T05:32:41.781Z,7.15
2024-01-19T05:35:09.838Z,7.57
2024-01-19T05:37:36.517Z,7.00
2024-01-19T05:40:04.721Z,8.23
2024-01-19T05:42:31.372Z,8.27
2024-01-19T05:44:57.999Z,10.85
2024-01-19T05:47:24.785Z,12.57
2024-01-19T05:49:51.397Z,14.75
2024-01-19T05:52:19.553Z,14.90
2024-01-19T05:54:46.204Z,13.38
2024-01-19T05:57:12.898Z,13.55
2024-01-19T05:59:40.885Z,12.02
2024-01-19T06:02:08.290Z,11.93
2024-01-19T06:04:38.034Z,11.02
2024-01-19T06:07:05.172Z,10.43
2024-01-19T06:09:32.915Z,9.32
2024-01-19T06:12:00.662Z,9.65
2024-01-19T06:14:27.310Z,8.13
2024-01-19T06:16:54.182Z,7.68
2024-01-19T06:19:20.899Z,6.00
2024-01-19T06:21:47.785Z,6.18
2024-01-19T06:24:18.540Z,6.43
2024-01-19T06:26:49.458Z,6.43
2024-01-19T06:29:16.524Z,5.60
2024-01-19T06:31:44.872Z,6.47
2024-01-19T06:34:12.604Z,5.82
2024-01-19T06:36:39.475Z,6.47
2024-01-19T06:39:08.461Z,5.55
2024-01-19T06:41:35.813Z,6.38
2024-01-19T06:44:02.624Z,6.85
2024-01-19T06:46:30.329Z,7.70
2024-01-19T06:48:57.495Z,7.90
2024-01-19T06:51:25.659Z,7.63
2024-01-19T06:53:52.610Z,8.00
2024-01-19T06:56:19.343Z,9.23
2024-01-19T06:58:45.940Z,7.85
2024-01-19T07:01:12.852Z,8.20
2024-01-19T07:03:39.607Z,7.13
2024-01-19T07:06:06.587Z,8.35
2024-01-19T07:08:33.322Z,7.35
2024-01-19T07:10:59.934Z,9.05
2024-01-19T07:13:26.571Z,8.10
2024-01-19T07:15:53.159Z,9.20
2024-01-19T07:18:19.881Z,9.50
2024-01-19T07:20:46.833Z,8.77
2024-01-19T07:23:13.536Z,9.18
2024-01-19T07:25:40.983Z,9.25
2024-01-19T07:28:07.599Z,8.38
2024-01-19T07:30:34.240Z,7.90
2024-01-19T07:33:06.969Z,7.80
2024-01-19T07:35:37.966Z,8.35
2024-01-19T07:38:05.122Z,8.40
2024-01-19T07:40:31.762Z,9.95
2024-01-19T07:42:58.383Z,9.52
2024-01-19T07:45:24.963Z,10.70
2024-01-19T07:47:51.635Z,10.90
2024-01-19T07:50:18.447Z,11.23
2024-01-19T07:52:45.138Z,10.90
2024-01-19T07:55:11.673Z,11.73
2024-01-19T07:57:38.359Z,9.90
2024-01-19T08:00:05.621Z,11.15
2024-01-19T08:02:33.601Z,11.52
2024-01-19T08:05:00.238Z,11.18
2024-01-19T08:07:27.618Z,10.38
2024-01-19T08:09:54.254Z,10.65
2024-01-19T08:12:20.982Z,10.98
2024-01-19T08:14:47.994Z,12.18
2024-01-19T08:17:14.649Z,11.05
2024-01-19T08:19:41.266Z,11.57
2024-01-19T08:22:08.438Z,10.18
2024-01-19T08:24:38.705Z,10.25
2024-01-19T08:27:05.950Z,10.98
2024-01-19T08:29:34.808Z,12.85
2024-01-19T08:32:01.405Z,12.82
2024-01-19T08:34:29.056Z,12.35
2024-01-19T08:36:55.703Z,11.52
2024-01-19T08:39:22.575Z,12.63
2024-01-19T08:41:49.308Z,12.02
2024-01-19T08:44:16.512Z,12.82
2024-01-19T08:46:47.033Z,13.70
2024-01-19T08:49:13.971Z,13.60
2024-01-19T08:51:40.755Z,13.60
2024-01-19T08:54:07.826Z,11.95
2024-01-19T08:56:38.869Z,12.98
2024-01-19T08:59:10.045Z,12.73
2024-01-19T09:01:36.989Z,13.88
2024-01-19T09:04:04.356Z,13.23
2024-01-19T09:06:32.020Z,12.95
2024-01-19T09:09:02.492Z,13.38
2024-01-19T09:11:29.280Z,13.18
2024-01-19T09:13:56.008Z,12.23
2024-01-19T09:16:22.606Z,12.38
2024-01-19T09:18:49.424Z,13.23
2024-01-19T09:21:20.541Z,13.00
2024-01-19T09:23:47.323Z,12.05
2024-01-19T09:26:21.190Z,13.50
2024-01-19T09:28:48.691Z,12.32
2024-01-19T09:31:16.249Z,12.45
2024-01-19T09:33:43.875Z,11.00
2024-01-19T09:36:10.856Z,11.82
2024-01-19T09:38:38.564Z,10.63
2024-01-19T09:41:37.750Z,11.35
2024-01-19T09:44:11.807Z,11.48
2024-01-19T09:46:53.601Z,10.88
2024-01-19T09:49:44.803Z,11.13
2024-01-19T09:52:50.813Z,11.23
2024-01-19T09:55:18.174Z,11.32
2024-01-19T09:57:47.167Z,11.85
2024-01-19T10:00:15.656Z,10.18
2024-01-19T10:02:46.884Z,12.05
2024-01-19T10:05:15.127Z,13.90
2024-01-19T10:07:56.417Z,12.10
2024-01-19T10:10:23.190Z,11.50
2024-01-19T10:12:49.805Z,11.05
2024-01-19T10:15:18.640Z,11.50
2024-01-19T10:17:46.602Z,12.32
2024-01-19T10:20:17.396Z,12.57
2024-01-19T10:22:44.318Z,11.00
2024-01-19T10:25:12.899Z,9.82
2024-01-19T10:27:55.094Z,9.18
2024-01-19T10:30:29.694Z,10.07
2024-01-19T10:33:08.433Z,8.85
2024-01-19T10:35:38.994Z,9.20
2024-01-19T10:38:08.520Z,7.93
2024-01-19T10:40:35.822Z,7.40
2024-01-19T10:43:04.303Z,7.47
2024-01-19T10:45:32.881Z,7.03
2024-01-19T10:48:01.918Z,6.90
2024-01-19T10:50:29.707Z,6.72
2024-01-19T10:52:58.309Z,5.97
2024-01-19T10:55:27.357Z,7.78
2024-01-19T10:57:57.423Z,5.97
2024-01-19T11:00:29.135Z,5.40
2024-01-19T11:02:58.230Z,5.20
2024-01-19T11:05:26.421Z,5.20
2024-01-19T11:08:01.551Z,5.15
2024-01-19T11:10:31.129Z,4.90
2024-01-19T11:13:03.226Z,4.50
2024-01-19T11:15:42.060Z,4.82
2024-01-19T11:18:08.936Z,4.75
2024-01-19T11:20:36.156Z,4.75
2024-01-19T11:23:04.162Z,5.13
2024-01-19T11:25:54.202Z,4.10
2024-01-19T11:28:30.740Z,3.90
2024-01-19T11:31:13.019Z,4.40
2024-01-19T11:33:39.969Z,3.70
2024-01-19T11:36:07.118Z,3.40
2024-01-19T11:38:39.656Z,3.58
2024-01-19T11:41:06.574Z,3.85
2024-01-19T11:43:43.144Z,3.78
2024-01-19T11:46:12.898Z,3.72
2024-01-19T11:48:43.978Z,3.63
2024-01-19T11:51:36.711Z,3.40
2024-01-19T11:54:05.419Z,4.00
2024-01-19T11:56:32.637Z,3.85
2024-01-19T11:58:59.866Z,4.75
2024-01-19T12:01:26.647Z,8.63
2024-01-19T12:03:54.758Z,6.50
2024-01-19T12:06:24.898Z,10.98
2024-01-19T12:09:10.485Z,6.22
2024-01-19T12:11:37.478Z,3.70
2024-01-19T12:14:06.286Z,7.97
2024-01-19T12:16:33.777Z,3.75
2024-01-19T12:19:00.903Z,3.72
2024-01-19T12:21:28.804Z,5.65
2024-01-19T12:23:59.091Z,9.60
2024-01-19T12:26:25.881Z,18.80
2024-01-19T12:28:53.534Z,32.72
2024-01-19T12:31:38.878Z,17.30
2024-01-19T12:34:13.524Z,17.85
2024-01-19T12:36:40.701Z,4.40
2024-01-19T12:39:12.135Z,15.25
2024-01-19T12:41:42.963Z,27.35
2024-01-19T12:44:09.689Z,10.98
2024-01-19T12:46:36.412Z,14.30
2024-01-19T12:49:04.402Z,5.25
2024-01-19T12:51:31.896Z,6.07
2024-01-19T12:53:58.937Z,4.65
2024-01-19T12:56:30.313Z,4.47
2024-01-19T12:59:11.661Z,25.90
2024-01-19T13:01:42.438Z,24.45
2024-01-19T13:04:09.348Z,11.65
2024-01-19T13:06:42.965Z,8.93
2024-01-19T13:09:10.891Z,5.55
2024-01-19T13:11:37.554Z,4.68
2024-01-19T13:14:05.097Z,4.53
2024-01-19T13:16:33.330Z,4.63
2024-01-19T13:19:04.302Z,5.03
2024-01-19T13:21:31.723Z,4.65
2024-01-19T13:23:58.776Z,4.90
2024-01-19T13:26:25.893Z,4.10
2024-01-19T13:28:52.766Z,5.03
2024-01-19T13:31:19.768Z,4.15
2024-01-19T13:33:47.474Z,5.10
2024-01-19T13:36:16.648Z,5.38
2024-01-19T13:38:44.679Z,6.82
2024-01-19T13:41:12.683Z,5.57
2024-01-19T13:43:45.766Z,4.50
2024-01-19T13:46:15.121Z,5.07
2024-01-19T13:48:43.252Z,4.82
2024-01-19T13:51:10.466Z,5.68
2024-01-19T13:53:37.181Z,4.85
2024-01-19T13:56:04.623Z,4.80
2024-01-19T13:58:31.323Z,4.47
2024-01-19T14:00:58.254Z,4.93
2024-01-19T14:03:25.154Z,4.65
2024-01-19T14:05:52.028Z,4.78
2024-01-19T14:08:20.721Z,4.70
2024-01-19T14:10:50.180Z,4.53
2024-01-19T14:13:18.137Z,5.45
2024-01-19T14:15:52.130Z,4.50
2024-01-19T14:18:19.692Z,4.80
2024-01-19T14:20:47.709Z,4.68
2024-01-19T14:23:14.736Z,5.10
2024-01-19T14:25:41.528Z,4.95
2024-01-19T14:28:10.426Z,5.00
2024-01-19T14:30:37.267Z,5.93
2024-01-19T14:33:04.367Z,6.22
2024-01-19T14:35:31.097Z,5.93
2024-01-19T14:37:58.334Z,7.05
2024-01-19T14:40:25.009Z,5.85
2024-01-19T14:42:54.595Z,5.95
2024-01-19T14:45:23.621Z,5.65
2024-01-19T14:47:50.407Z,7.20
2024-01-19T14:50:17.461Z,7.63
2024-01-19T14:52:46.083Z,10.77
2024-01-19T14:55:14.361Z,6.03
2024-01-19T14:57:40.992Z,5.93
2024-01-19T15:00:09.385Z,6.28
2024-01-19T15:02:37.436Z,5.68
2024-01-19T15:05:05.321Z,5.88
2024-01-19T15:07:33.446Z,6.40
2024-01-19T15:10:00.308Z,7.15
2024-01-19T15:12:27.058Z,7.57
2024-01-19T15:14:54.428Z,10.43
2024-01-19T15:17:21.380Z,7.95
2024-01-19T15:19:53.504Z,7.60
2024-01-19T15:22:21.124Z,6.53
2024-01-19T15:24:48.871Z,6.00
2024-01-19T15:27:15.512Z,6.18
2024-01-19T15:29:42.540Z,7.07
2024-01-19T15:32:09.310Z,6.40
2024-01-19T15:34:35.990Z,6.68
2024-01-19T15:37:02.662Z,7.07
2024-01-19T15:39:29.259Z,7.85
2024-01-19T15:41:57.218Z,7.65
2024-01-19T15:44:25.367Z,8.18
2024-01-19T15:46:52.008Z,8.05
2024-01-19T15:49:18.787Z,8.70
2024-01-19T15:51:45.378Z,9.63
2024-01-19T15:54:11.984Z,8.35
2024-01-19T15:56:38.978Z,9.02
2024-01-19T15:59:08.155Z,8.93
2024-01-19T16:01:39.661Z,9.07
2024-01-19T16:04:06.955Z,9.68
2024-01-19T16:06:33.510Z,9.60
2024-01-19T16:09:00.161Z,11.18
2024-01-19T16:11:26.716Z,11.38
2024-01-19T16:13:53.306Z,11.95
2024-01-19T16:16:20.032Z,11.60
2024-01-19T16:18:46.714Z,10.80
2024-01-19T16:21:21.021Z,12.18
2024-01-19T16:23:47.891Z,10.88
2024-01-19T16:26:19.008Z,12.30
2024-01-19T16:28:46.896Z,12.05
2024-01-19T16:31:14.582Z,12.95
2024-01-19T16:33:41.145Z,12.23
2024-01-19T16:36:08.429Z,13.35
2024-01-19T16:38:35.016Z,14.10
2024-01-19T16:41:01.737Z,13.50
2024-01-19T16:43:28.643Z,13.93
2024-01-19T16:45:55.538Z,14.73
2024-01-19T16:48:23.733Z,14.43
2024-01-19T16:50:51.379Z,15.13
2024-01-19T16:53:18.014Z,15.82
2024-01-19T16:55:44.834Z,15.27
2024-01-19T16:58:11.696Z,16.33
2024-01-19T17:00:38.433Z,16.48
2024-01-19T17:03:05.348Z,17.48
2024-01-19T17:05:32.012Z,15.27
2024-01-19T17:07:58.720Z,17.13
2024-01-19T17:10:25.301Z,17.00
2024-01-19T17:12:51.878Z,15.50
2024-01-19T17:15:18.501Z,16.25
2024-01-19T17:17:46.107Z,17.98
2024-01-19T17:20:12.896Z,17.05
2024-01-19T17:22:39.820Z,17.55
2024-01-19T17:25:06.817Z,17.75
2024-01-19T17:27:33.410Z,15.50
2024-01-19T17:30:00.053Z,16.63
2024-01-19T17:32:27.130Z,16.08
2024-01-19T17:34:53.965Z,19.75
2024-01-19T17:37:20.744Z,18.23
2024-01-19T17:39:47.494Z,18.33
2024-01-19T17:42:14.190Z,20.15
2024-01-19T17:44:41.325Z,25.40
2024-01-19T17:47:07.893Z,20.92
2024-01-19T17:49:34.542Z,19.05
2024-01-19T17:52:01.130Z,20.75
2024-01-19T17:54:31.922Z,20.70
2024-01-19T17:56:58.643Z,21.23
2024-01-19T17:59:25.939Z,20.42
2024-01-19T18:01:52.685Z,23.13
2024-01-19T18:04:20.843Z,20.50
2024-01-19T18:06:47.731Z,21.25
2024-01-19T18:09:16.421Z,22.75
2024-01-19T18:11:45.610Z,23.90
2024-01-19T18:14:12.721Z,23.13
2024-01-19T18:16:39.922Z,24.95
2024-01-19T18:19:06.761Z,23.23
2024-01-19T18:21:35.220Z,26.08
2024-01-19T18:24:03.582Z,26.50
2024-01-19T18:26:30.274Z,25.30
2024-01-19T18:28:57.035Z,24.73
2024-01-19T18:31:24.326Z,24.05
2024-01-19T18:33:51.246Z,27.20
2024-01-19T18:36:19.991Z,25.33
2024-01-19T18:38:46.594Z,26.77
2024-01-19T18:41:13.271Z,24.30
2024-01-19T18:43:39.947Z,26.98
2024-01-19T18:46:06.547Z,28.48
2024-01-19T18:48:37.686Z,28.15
2024-01-19T18:51:05.258Z,29.40
2024-01-19T18:53:33.590Z,28.58
2024-01-19T18:56:00.566Z,26.23
2024-01-19T18:58:30.099Z,28.27
2024-01-19T19:00:57.390Z,28.48
2024-01-19T19:03:24.047Z,28.05
2024-01-19T19:05:51.126Z,28.55
2024-01-19T19:08:19.671Z,26.52
2024-01-19T19:10:49.363Z,28.08
2024-01-19T19:13:16.290Z,29.20
2024-01-19T19:15:43.258Z,28.02
2024-01-19T19:18:11.409Z,26.92
2024-01-19T19:20:38.520Z,28.88
2024-01-19T19:23:05.294Z,30.45
2024-01-19T19:25:31.895Z,31.02
2024-01-19T19:27:58.611Z,30.80
2024-01-19T19:30:26.247Z,27.17
2024-01-19T19:32:54.285Z,28.83
2024-01-19T19:35:21.319Z,29.35
2024-01-19T19:37:48.070Z,29.77
2024-01-19T19:40:14.825Z,26.80
2024-01-19T19:42:41.418Z,26.50
2024-01-19T19:45:09.369Z,27.13
2024-01-19T19:47:36.060Z,26.67
2024-01-19T19:50:03.901Z,29.13
2024-01-19T19:52:30.475Z,28.65
2024-01-19T19:54:57.627Z,26.55
2024-01-19T19:57:24.193Z,27.85
2024-01-19T19:59:50.827Z,30.02
2024-01-19T20:02:17.510Z,30.38
2024-01-19T20:04:44.198Z,28.20
2024-01-19T20:07:10.983Z,28.27
2024-01-19T20:09:37.724Z,27.75
2024-01-19T20:12:04.872Z,28.85
2024-01-19T20:14:34.337Z,30.13
2024-01-19T20:17:01.506Z,28.23
2024-01-19T20:19:28.138Z,31.27
2024-01-19T20:21:54.914Z,30.63
2024-01-19T20:24:21.484Z,30.95
2024-01-19T20:26:48.696Z,30.55
2024-01-19T20:29:15.436Z,28.67
2024-01-19T20:31:42.134Z,31.38
2024-01-19T20:34:08.787Z,32.08
2024-01-19T20:36:35.750Z,31.75
2024-01-19T20:39:02.680Z,29.38
2024-01-19T20:41:30.192Z,29.55
2024-01-19T20:43:56.840Z,31.17
2024-01-19T20:46:23.473Z,31.42
2024-01-19T20:48:50.070Z,32.33
2024-01-19T20:51:16.657Z,32.75
2024-01-19T20:53:44.434Z,30.15
2024-01-19T20:56:11.136Z,31.80
2024-01-19T20:58:37.967Z,29.25
2024-01-19T21:01:04.668Z,32.22
2024-01-19T21:03:32.313Z,33.20
2024-01-19T21:05:59.353Z,34.08
2024-01-19T21:08:28.117Z,30.60
2024-01-19T21:10:55.355Z,34.40
2024-01-19T21:13:26.105Z,32.97
2024-01-19T21:15:52.718Z,32.38
2024-01-19T21:18:19.712Z,32.15
2024-01-19T21:20:46.736Z,32.95
2024-01-19T21:23:13.683Z,35.88
2024-01-19T21:25:40.894Z,33.20
2024-01-19T21:28:07.675Z,32.63
2024-01-19T21:30:34.723Z,32.47
2024-01-19T21:33:01.373Z,35.47
2024-01-19T21:35:28.158Z,36.53
2024-01-19T21:37:54.938Z,36.85
2024-01-19T21:40:22.059Z,36.28
2024-01-19T21:42:48.879Z,38.90
2024-01-19T21:45:16.242Z,35.72
2024-01-19T21:47:43.901Z,37.80
2024-01-19T21:50:11.649Z,36.33
2024-01-19T21:52:38.633Z,35.58
2024-01-19T21:55:07.678Z,36.47
2024-01-19T21:57:35.121Z,35.03
2024-01-19T22:00:02.601Z,35.25
2024-01-19T22:02:41.405Z,37.30
2024-01-19T22:05:09.787Z,35.17
2024-01-19T22:07:36.918Z,35.92
2024-01-19T22:10:03.895Z,37.65
2024-01-19T22:12:30.469Z,38.40
2024-01-19T22:14:57.070Z,37.08
2024-01-19T22:17:23.824Z,35.25
2024-01-19T22:19:50.715Z,37.33
2024-01-19T22:22:17.489Z,35.63
2024-01-19T22:24:44.065Z,37.08
2024-01-19T22:27:10.789Z,33.65
2024-01-19T22:29:41.064Z,35.60
2024-01-19T22:32:07.894Z,33.85
2024-01-19T22:34:34.854Z,36.08
2024-01-19T22:37:01.946Z,34.58
2024-01-19T22:39:29.091Z,31.60
2024-01-19T22:41:55.880Z,34.55
2024-01-19T22:44:22.558Z,32.88
2024-01-19T22:46:49.362Z,35.67
2024-01-19T22:49:16.180Z,33.35
2024-01-19T22:51:42.980Z,35.67
2024-01-19T22:54:09.890Z,32.58
2024-01-19T22:56:36.699Z,34.83
2024-01-19T22:59:04.651Z,34.40
2024-01-19T23:01:31.699Z,31.63
2024-01-19T23:03:58.589Z,34.22
2024-01-19T23:06:26.229Z,32.70
2024-01-19T23:08:53.044Z,34.90
2024-01-19T23:11:19.776Z,31.48
2024-01-19T23:13:46.819Z,33.40
2024-01-19T23:16:13.587Z,30.15
2024-01-19T23:18:41.231Z,34.50
2024-01-19T23:21:10.428Z,33.60
2024-01-19T23:23:38.763Z,33.38
2024-01-19T23:26:05.919Z,32.38
2024-01-19T23:28:32.550Z,31.92
2024-01-19T23:30:59.521Z,30.95
2024-01-19T23:33:26.504Z,31.27
2024-01-19T23:35:53.709Z,29.83
2024-01-19T23:38:20.520Z,31.90
2024-01-19T23:40:47.625Z,29.58
2024-01-19T23:43:14.328Z,28.83
2024-01-19T23:45:41.029Z,27.17
2024-01-19T23:48:07.994Z,30.00
2024-01-19T23:50:37.920Z,28.70
2024-01-19T23:53:04.520Z,31.60
2024-01-19T23:55:31.183Z,28.35
2024-01-19T23:57:57.783Z,29.40
